Time;durP1;ratioP1;P1;durP2;ratioP2;P2;SDS_P1;SDS_P2;PMS_P1;PMS_P2;Temp;Humidity;BMP_temperature;BMP_pressure;BME280_temperature;BME280_humidity;BME280_pressure;Samples;Min_cycle;Max_cycle;Signal;HPM_P1;HPM_P2
2022/07/10 00:00:15;;;;;;;4.30;2.00;;;14.00;99.90;;;;;;5094300;28;20204;-66
2022/07/10 00:02:42;;;;;;;3.27;2.00;;;14.00;99.90;;;;;;5092920;28;20177;-67
2022/07/10 00:05:09;;;;;;;2.20;1.53;;;13.80;99.90;;;;;;5075684;28;20856;-65
2022/07/10 00:07:35;;;;;;;2.60;1.60;;;13.80;99.90;;;;;;5074259;28;20386;-66
2022/07/10 00:10:01;;;;;;;5.83;2.17;;;13.80;99.90;;;;;;5074382;28;20387;-66
2022/07/10 00:12:27;;;;;;;2.93;1.87;;;13.80;99.90;;;;;;5072298;28;20213;-72
2022/07/10 00:14:53;;;;;;;6.83;2.03;;;13.80;99.90;;;;;;5074162;28;20416;-73
2022/07/10 00:17:18;;;;;;;2.67;2.00;;;13.70;99.90;;;;;;5074203;28;20666;-74
2022/07/10 00:19:44;;;;;;;5.77;2.23;;;13.80;99.90;;;;;;5074615;28;20182;-66
2022/07/10 00:22:09;;;;;;;5.07;1.83;;;13.80;99.90;;;;;;5073497;28;20178;-71
2022/07/10 00:24:35;;;;;;;2.17;1.57;;;13.70;99.90;;;;;;5073730;28;20190;-68
2022/07/10 00:27:01;;;;;;;1.93;1.73;;;13.60;99.90;;;;;;5074366;28;20623;-73
2022/07/10 00:29:26;;;;;;;4.27;1.50;;;13.50;99.90;;;;;;5074165;28;20182;-75
2022/07/10 00:31:52;;;;;;;2.83;1.90;;;13.40;99.90;;;;;;5073972;28;20201;-73
2022/07/10 00:34:18;;;;;;;5.47;2.07;;;13.40;99.90;;;;;;5072881;28;20197;-69
2022/07/10 00:36:44;;;;;;;8.10;3.20;;;13.50;99.90;;;;;;5083891;28;20409;-72
2022/07/10 00:39:10;;;;;;;8.30;2.57;;;13.50;99.90;;;;;;5093798;28;20244;-66
2022/07/10 00:41:36;;;;;;;2.73;1.53;;;13.50;99.90;;;;;;5094024;28;20226;-73
2022/07/10 00:44:02;;;;;;;4.63;1.80;;;13.50;99.90;;;;;;5093071;28;20477;-66
2022/07/10 00:46:29;;;;;;;3.03;1.57;;;13.50;99.90;;;;;;5094051;28;20176;-72
2022/07/10 00:48:57;;;;;;;11.30;2.40;;;13.50;99.90;;;;;;5093950;28;20896;-72
2022/07/10 00:51:26;;;;;;;10.57;2.03;;;13.50;99.90;;;;;;5092213;28;20937;-74
2022/07/10 00:53:52;;;;;;;2.70;1.87;;;13.50;99.90;;;;;;5091866;28;20428;-75
2022/07/10 00:56:21;;;;;;;2.97;2.23;;;13.50;99.90;;;;;;5093517;28;20381;-66
2022/07/10 00:58:47;;;;;;;5.17;2.33;;;13.60;99.90;;;;;;5093791;28;20409;-68
2022/07/10 01:01:14;;;;;;;4.13;1.93;;;13.60;99.90;;;;;;5093807;28;20473;-66
2022/07/10 01:03:40;;;;;;;6.10;2.07;;;13.60;99.90;;;;;;5092813;28;20839;-73
2022/07/10 01:06:06;;;;;;;3.87;2.30;;;13.50;99.90;;;;;;5093751;28;20919;-73
2022/07/10 01:08:32;;;;;;;2.43;1.90;;;13.50;99.90;;;;;;5091402;28;20406;-73
2022/07/10 01:10:58;;;;;;;6.40;2.37;;;13.40;99.90;;;;;;5093392;28;20197;-66
2022/07/10 01:13:24;;;;;;;7.90;2.10;;;13.50;99.90;;;;;;5092311;28;20819;-73
2022/07/10 01:15:52;;;;;;;4.77;1.87;;;13.50;99.90;;;;;;5093584;28;20694;-68
2022/07/10 01:18:18;;;;;;;4.10;2.20;;;13.60;99.90;;;;;;5093472;28;20400;-68
2022/07/10 01:20:44;;;;;;;7.97;2.20;;;13.60;99.90;;;;;;5093519;28;20460;-74
2022/07/10 01:23:09;;;;;;;3.40;1.87;;;13.60;99.90;;;;;;5092102;28;20378;-68
2022/07/10 01:25:35;;;;;;;3.40;2.27;;;13.70;99.90;;;;;;5078817;28;20216;-75
2022/07/10 01:28:01;;;;;;;5.13;2.20;;;13.70;99.90;;;;;;5073374;28;20244;-67
2022/07/10 01:30:27;;;;;;;2.90;2.17;;;13.80;99.90;;;;;;5073195;28;20181;-67
2022/07/10 01:32:52;;;;;;;3.37;1.83;;;13.80;99.90;;;;;;5071811;28;20245;-70
2022/07/10 01:35:19;;;;;;;7.53;2.10;;;13.80;99.90;;;;;;5072978;28;21015;-68
2022/07/10 01:37:45;;;;;;;4.23;1.63;;;13.90;99.90;;;;;;5073397;28;20189;-67
2022/07/10 01:40:11;;;;;;;4.27;2.10;;;14.00;99.90;;;;;;5083577;28;20423;-68
2022/07/10 01:42:38;;;;;;;6.47;2.60;;;14.00;99.90;;;;;;5092480;28;20500;-72
2022/07/10 01:45:08;;;;;;;8.07;2.27;;;14.00;99.90;;;;;;5083854;28;20443;-73
2022/07/10 01:47:34;;;;;;;7.00;2.97;;;14.00;99.90;;;;;;5093300;28;20411;-67
2022/07/10 01:50:00;;;;;;;9.97;2.40;;;14.00;99.90;;;;;;5091483;28;20431;-74
2022/07/10 01:52:25;;;;;;;5.93;2.20;;;14.00;99.90;;;;;;5091807;28;20275;-72
2022/07/10 01:54:51;;;;;;;5.53;2.63;;;14.00;99.90;;;;;;5087327;28;20202;-68
2022/07/10 01:57:17;;;;;;;4.37;2.40;;;13.80;99.90;;;;;;5093192;28;20173;-68
2022/07/10 01:59:43;;;;;;;3.10;1.90;;;13.80;99.90;;;;;;5093211;28;20215;-75
2022/07/10 02:02:09;;;;;;;2.70;2.50;;;13.90;99.90;;;;;;5092864;28;20794;-72
2022/07/10 02:04:41;;;;;;;8.10;2.20;;;14.00;99.90;;;;;;5092822;28;20190;-75
2022/07/10 02:07:11;;;;;;;8.13;2.57;;;14.00;99.90;;;;;;5093147;28;20364;-75
2022/07/10 02:09:38;;;;;;;14.83;2.63;;;14.00;99.90;;;;;;5083057;28;20489;-74
2022/07/10 02:12:06;;;;;;;10.70;2.40;;;14.00;99.90;;;;;;5072641;28;20966;-74
2022/07/10 02:14:32;;;;;;;2.50;2.07;;;14.00;99.90;;;;;;5072011;28;20420;-68
2022/07/10 02:16:57;;;;;;;6.13;2.43;;;14.00;99.90;;;;;;5072796;28;20895;-67
2022/07/10 02:19:23;;;;;;;5.60;2.23;;;14.10;99.90;;;;;;5071472;28;20941;-73
2022/07/10 02:21:49;;;;;;;11.40;3.10;;;14.10;99.90;;;;;;5072733;28;20215;-67
2022/07/10 02:24:15;;;;;;;4.20;2.40;;;14.10;99.90;;;;;;5089171;28;20607;-67
2022/07/10 02:26:41;;;;;;;4.23;1.90;;;14.00;99.90;;;;;;5092989;28;20415;-67
2022/07/10 02:29:06;;;;;;;2.17;2.03;;;14.00;99.90;;;;;;5092468;28;20537;-67
2022/07/10 02:31:34;;;;;;;4.93;2.80;;;14.00;99.90;;;;;;5092646;28;20209;-68
2022/07/10 02:34:01;;;;;;;5.23;3.90;;;13.90;99.90;;;;;;5091854;28;20685;-67
2022/07/10 02:36:27;;;;;;;6.77;3.77;;;13.90;99.90;;;;;;5094507;28;20409;-67
2022/07/10 02:38:52;;;;;;;5.73;2.80;;;13.80;99.90;;;;;;5096479;28;20464;-74
2022/07/10 02:41:18;;;;;;;5.37;2.43;;;13.80;99.90;;;;;;5096462;28;20874;-75
2022/07/10 02:43:43;;;;;;;9.80;2.97;;;13.80;99.90;;;;;;5095232;28;20282;-67
2022/07/10 02:46:09;;;;;;;4.60;2.43;;;13.80;99.90;;;;;;5096220;28;20260;-68
2022/07/10 02:48:35;;;;;;;14.00;3.07;;;13.70;99.90;;;;;;5096063;28;20253;-67
2022/07/10 02:51:00;;;;;;;5.17;2.20;;;13.70;99.90;;;;;;5096368;28;20250;-74
2022/07/10 02:53:26;;;;;;;5.50;2.73;;;13.80;99.90;;;;;;5079783;28;20722;-67
2022/07/10 02:55:52;;;;;;;6.67;2.73;;;13.80;99.90;;;;;;5075771;28;20235;-67
2022/07/10 02:58:19;;;;;;;7.73;2.50;;;13.80;99.90;;;;;;5075925;28;20176;-73
2022/07/10 03:00:45;;;;;;;7.87;2.60;;;13.80;99.90;;;;;;5076120;28;20623;-67
2022/07/10 03:03:11;;;;;;;7.57;2.53;;;13.90;99.90;;;;;;5074285;28;20396;-67
2022/07/10 03:05:36;;;;;;;9.20;2.80;;;13.80;99.90;;;;;;5075708;28;20253;-74
2022/07/10 03:08:02;;;;;;;6.20;2.97;;;13.90;99.90;;;;;;5076851;28;20189;-75
2022/07/10 03:10:27;;;;;;;7.20;2.70;;;13.80;99.90;;;;;;5075403;28;20605;-74
2022/07/10 03:12:53;;;;;;;9.10;2.70;;;13.80;99.90;;;;;;5074695;28;20673;-67
2022/07/10 03:15:19;;;;;;;7.47;3.10;;;13.80;99.90;;;;;;5075598;28;20535;-67
2022/07/10 03:17:44;;;;;;;6.27;2.67;;;13.80;99.90;;;;;;5075418;28;20166;-68
2022/07/10 03:20:10;;;;;;;12.10;2.90;;;13.80;99.90;;;;;;5074949;28;20523;-75
2022/07/10 03:22:37;;;;;;;6.30;2.30;;;13.80;99.90;;;;;;5074573;28;20170;-67
2022/07/10 03:25:03;;;;;;;6.93;2.43;;;13.90;99.90;;;;;;5082648;28;20194;-67
2022/07/10 03:27:29;;;;;;;5.23;2.70;;;13.90;99.90;;;;;;5095533;28;20734;-74
2022/07/10 03:29:54;;;;;;;10.33;3.20;;;13.90;99.90;;;;;;5095280;28;20465;-69
2022/07/10 03:32:20;;;;;;;8.07;2.93;;;13.90;99.90;;;;;;5094306;28;20736;-74
2022/07/10 03:34:46;;;;;;;9.37;2.70;;;13.90;99.90;;;;;;5095212;28;20669;-74
2022/07/10 03:37:11;;;;;;;9.40;2.90;;;13.90;99.90;;;;;;5094876;28;20173;-74
2022/07/10 03:39:37;;;;;;;4.73;2.53;;;13.90;99.90;;;;;;5095275;28;20212;-67
2022/07/10 03:42:03;;;;;;;15.07;2.90;;;13.80;99.90;;;;;;5076578;28;20210;-74
2022/07/10 03:44:29;;;;;;;6.10;2.47;;;13.80;99.90;;;;;;5074116;28;20712;-67
2022/07/10 03:46:54;;;;;;;10.30;2.53;;;13.80;99.90;;;;;;5074768;28;20379;-74
2022/07/10 03:49:20;;;;;;;4.07;2.23;;;13.80;99.90;;;;;;5074883;28;20174;-67
2022/07/10 03:51:46;;;;;;;14.43;2.63;;;13.80;99.90;;;;;;5073315;28;20670;-68
2022/07/10 03:54:12;;;;;;;6.90;2.10;;;13.90;99.90;;;;;;5073550;28;20512;-68
2022/07/10 03:59:21;;;;;;;12.27;2.57;;;13.90;99.90;;;;;;5074999;28;20711;-67
2022/07/10 04:01:47;;;;;;;3.10;2.27;;;14.00;99.90;;;;;;5074714;28;20469;-67
2022/07/10 04:04:13;;;;;;;6.83;1.97;;;13.90;99.90;;;;;;5072496;28;20228;-67
2022/07/10 04:06:38;;;;;;;5.83;2.70;;;13.80;99.90;;;;;;5074450;28;20209;-74
2022/07/10 04:09:05;;;;;;;4.30;2.77;;;13.70;99.90;;;;;;5073186;28;20172;-67
2022/07/10 04:11:30;;;;;;;4.77;2.17;;;13.60;99.90;;;;;;5073731;28;20266;-67
2022/07/10 04:13:56;;;;;;;5.13;2.40;;;13.50;99.90;;;;;;5073142;28;20522;-67
2022/07/10 04:16:22;;;;;;;7.77;2.57;;;13.50;99.90;;;;;;5074208;28;20182;-67
2022/07/10 04:18:48;;;;;;;5.00;2.43;;;13.50;99.90;;;;;;5072957;28;20415;-67
2022/07/10 04:21:14;;;;;;;7.00;2.93;;;13.40;99.90;;;;;;5074368;28;20170;-74
2022/07/10 04:23:40;;;;;;;6.60;2.20;;;13.30;99.90;;;;;;5073135;28;20894;-74
2022/07/10 04:26:05;;;;;;;7.67;2.43;;;13.30;99.90;;;;;;5074229;28;20801;-67
2022/07/10 04:28:31;;;;;;;6.50;2.80;;;13.40;99.90;;;;;;5073664;28;20193;-69
2022/07/10 04:30:57;;;;;;;5.60;2.57;;;13.40;99.90;;;;;;5073840;28;20271;-67
2022/07/10 04:33:23;;;;;;;10.37;2.40;;;13.30;99.90;;;;;;5073077;28;20376;-67
2022/07/10 04:35:49;;;;;;;5.10;2.40;;;13.30;99.90;;;;;;5073934;28;20170;-67
2022/07/10 04:38:14;;;;;;;5.00;2.23;;;13.30;99.90;;;;;;5073761;28;20413;-67
2022/07/10 04:40:40;;;;;;;9.13;2.77;;;13.40;99.90;;;;;;5073664;28;20188;-67
2022/07/10 04:43:06;;;;;;;6.80;2.33;;;13.40;99.90;;;;;;5072793;28;20178;-69
2022/07/10 04:45:31;;;;;;;6.03;2.20;;;13.40;99.90;;;;;;5084077;28;20186;-73
2022/07/10 04:47:57;;;;;;;7.73;2.30;;;13.40;99.90;;;;;;5089548;28;20181;-74
2022/07/10 04:50:23;;;;;;;4.77;2.63;;;13.30;99.90;;;;;;5093804;28;20215;-68
2022/07/10 04:52:48;;;;;;;5.00;2.00;;;13.40;99.90;;;;;;5092930;28;20201;-73
2022/07/10 04:55:14;;;;;;;3.87;1.97;;;13.40;99.90;;;;;;5093916;28;20256;-67
2022/07/10 04:57:44;;;;;;;8.23;1.90;;;13.40;99.90;;;;;;5093439;28;20170;-67
2022/07/10 05:00:10;;;;;;;8.80;2.33;;;13.40;99.90;;;;;;5089656;28;20174;-67
2022/07/10 05:02:36;;;;;;;7.70;3.33;;;13.50;99.90;;;;;;5091229;28;20455;-75
2022/07/10 05:05:02;;;;;;;3.83;1.93;;;13.50;99.90;;;;;;5093586;28;20427;-74
2022/07/10 05:07:28;;;;;;;6.43;2.80;;;13.60;99.90;;;;;;5092725;28;20173;-74
2022/07/10 05:09:53;;;;;;;6.13;2.00;;;13.70;99.90;;;;;;5093212;28;20453;-66
2022/07/10 05:12:19;;;;;;;23.97;2.57;;;13.70;99.90;;;;;;5092729;28;20649;-74
2022/07/10 05:14:45;;;;;;;3.83;2.60;;;13.80;99.90;;;;;;5092299;28;20494;-69
2022/07/10 05:17:11;;;;;;;3.73;2.13;;;13.90;99.90;;;;;;5074230;28;20185;-67
2022/07/10 05:19:36;;;;;;;4.73;2.33;;;13.90;99.90;;;;;;5073508;28;20181;-75
2022/07/10 05:22:02;;;;;;;13.13;2.60;;;13.90;99.90;;;;;;5073113;28;20170;-73
2022/07/10 05:24:28;;;;;;;4.67;2.23;;;13.90;99.90;;;;;;5072591;28;20597;-67
2022/07/10 05:26:53;;;;;;;3.50;1.60;;;13.90;99.90;;;;;;5073279;28;20170;-73
2022/07/10 05:29:19;;;;;;;5.63;2.43;;;13.90;99.90;;;;;;5072854;28;20614;-67
2022/07/10 05:31:45;;;;;;;6.17;1.93;;;14.00;99.90;;;;;;5072819;28;20205;-67
2022/07/10 05:34:10;;;;;;;8.73;2.10;;;14.10;99.90;;;;;;5072212;28;20216;-75
2022/07/10 05:36:36;;;;;;;8.97;2.13;;;14.10;99.90;;;;;;5073211;28;20588;-74
2022/07/10 05:39:02;;;;;;;8.13;2.70;;;14.20;99.90;;;;;;5072909;28;20176;-68
2022/07/10 05:41:28;;;;;;;9.83;1.90;;;14.20;99.90;;;;;;5071479;28;20204;-72
2022/07/10 05:43:54;;;;;;;6.17;1.90;;;14.30;99.90;;;;;;5072077;28;20770;-68
2022/07/10 05:46:19;;;;;;;6.20;2.97;;;14.40;99.90;;;;;;5072666;28;20512;-73
2022/07/10 05:48:45;;;;;;;3.07;1.77;;;14.40;99.90;;;;;;5074940;28;20403;-68
2022/07/10 05:51:11;;;;;;;9.87;2.00;;;14.40;99.90;;;;;;5073040;28;20200;-73
2022/07/10 05:53:37;;;;;;;4.93;1.87;;;14.40;99.90;;;;;;5072263;28;20182;-74
2022/07/10 05:56:03;;;;;;;4.23;1.70;;;14.40;99.90;;;;;;5075897;28;20402;-74
2022/07/10 05:58:29;;;;;;;4.90;2.17;;;14.40;99.90;;;;;;5076831;28;20759;-66
2022/07/10 06:00:55;;;;;;;10.00;2.40;;;14.40;99.90;;;;;;5093771;28;20500;-74
2022/07/10 06:03:21;;;;;;;8.07;2.90;;;14.40;99.90;;;;;;5091677;28;20178;-67
2022/07/10 06:05:47;;;;;;;8.13;2.80;;;14.40;99.90;;;;;;5093200;28;20495;-67
2022/07/10 06:08:13;;;;;;;9.63;2.17;;;14.60;99.90;;;;;;5093455;28;20173;-74
2022/07/10 06:10:40;;;;;;;5.53;2.40;;;14.60;99.90;;;;;;5095401;28;20451;-75
2022/07/10 06:13:06;;;;;;;5.53;1.77;;;14.60;99.90;;;;;;5094103;28;20216;-67
2022/07/10 06:15:32;;;;;;;7.60;1.60;;;14.60;99.90;;;;;;5095553;28;20852;-67
2022/07/10 06:17:58;;;;;;;5.00;2.50;;;14.80;99.90;;;;;;5096797;28;20434;-71
2022/07/10 06:20:25;;;;;;;4.23;1.73;;;14.80;99.90;;;;;;5096570;28;20560;-67
2022/07/10 06:22:50;;;;;;;7.27;2.27;;;14.90;99.90;;;;;;5095901;28;20395;-67
2022/07/10 06:25:16;;;;;;;6.43;1.80;;;14.90;99.90;;;;;;5096571;28;20444;-75
2022/07/10 06:27:42;;;;;;;6.00;1.53;;;15.00;99.90;;;;;;5096650;28;20176;-74
2022/07/10 06:30:08;;;;;;;3.33;1.87;;;15.10;99.90;;;;;;5090069;28;20203;-67
2022/07/10 06:32:34;;;;;;;7.37;2.10;;;15.10;99.90;;;;;;5095569;28;20189;-67
2022/07/10 06:35:00;;;;;;;6.60;1.93;;;15.20;99.90;;;;;;5096117;28;20462;-74
2022/07/10 06:37:25;;;;;;;8.47;2.30;;;15.30;99.90;;;;;;5084454;28;20182;-68
2022/07/10 06:39:51;;;;;;;5.93;2.00;;;15.40;99.90;;;;;;5092547;28;20166;-66
2022/07/10 06:42:17;;;;;;;6.07;2.23;;;15.50;99.90;;;;;;5089551;28;20700;-68
2022/07/10 06:44:43;;;;;;;5.90;2.93;;;15.40;99.90;;;;;;5075900;28;20269;-67
2022/07/10 06:49:56;;;;;;;5.20;2.13;;;15.30;99.90;;;;;;5075942;28;20399;-66
2022/07/10 06:52:21;;;;;;;3.30;2.10;;;15.30;99.90;;;;;;5075126;28;20473;-68
2022/07/10 06:54:47;;;;;;;4.37;2.13;;;15.40;99.90;;;;;;5075427;28;20432;-74
2022/07/10 06:57:13;;;;;;;10.60;2.17;;;15.40;99.90;;;;;;5076003;28;20174;-67
2022/07/10 06:59:39;;;;;;;4.90;1.90;;;15.40;99.90;;;;;;5074089;28;20893;-73
2022/07/10 07:02:05;;;;;;;7.37;2.60;;;15.40;99.90;;;;;;5075400;28;20415;-74
2022/07/10 07:04:31;;;;;;;1.97;1.70;;;15.40;99.90;;;;;;5074517;28;20210;-74
2022/07/10 07:06:56;;;;;;;2.80;1.63;;;15.50;99.90;;;;;;5075810;28;20397;-74
2022/07/10 07:09:22;;;;;;;5.53;1.63;;;15.50;99.90;;;;;;5074368;28;20637;-74
2022/07/10 07:11:48;;;;;;;3.70;2.00;;;15.50;99.90;;;;;;5075482;28;20205;-68
2022/07/10 07:14:13;;;;;;;2.00;1.30;;;15.60;99.90;;;;;;5074204;28;20208;-73
2022/07/10 07:16:42;;;;;;;3.77;1.57;;;15.70;99.90;;;;;;5075267;28;20265;-68
2022/07/10 07:19:11;;;;;;;7.70;2.13;;;15.70;99.90;;;;;;5075172;28;20661;-74
2022/07/10 07:24:21;;;;;;;4.90;1.73;;;15.70;99.90;;;;;;5074499;28;20425;-67
2022/07/10 07:26:48;;;;;;;4.77;1.50;;;15.70;99.90;;;;;;5075477;28;20436;-74
2022/07/10 07:29:15;;;;;;;7.47;1.73;;;15.70;99.90;;;;;;5075160;28;20217;-74
2022/07/10 07:31:40;;;;;;;6.00;1.60;;;15.70;99.90;;;;;;5074977;28;20440;-74
2022/07/10 07:34:06;;;;;;;4.67;1.60;;;15.60;99.90;;;;;;5072657;28;20521;-67
2022/07/10 07:36:32;;;;;;;3.73;1.30;;;15.60;99.90;;;;;;5075260;28;20190;-67
2022/07/10 07:38:57;;;;;;;3.97;1.47;;;15.60;99.90;;;;;;5075165;28;20543;-67
2022/07/10 07:41:23;;;;;;;5.40;1.57;;;15.80;99.90;;;;;;5075001;28;20204;-74
2022/07/10 07:43:49;;;;;;;5.53;1.57;;;16.10;99.90;;;;;;5073875;28;20190;-67
2022/07/10 07:46:15;;;;;;;2.10;1.43;;;16.30;99.90;;;;;;5074829;28;20256;-74
2022/07/10 07:48:41;;;;;;;5.00;1.40;;;16.40;99.90;;;;;;5074380;28;21003;-74
2022/07/10 07:51:07;;;;;;;6.23;2.03;;;16.30;94.30;;;;;;5074223;28;20677;-75
2022/07/10 07:53:33;;;;;;;3.50;1.20;;;16.30;94.40;;;;;;5073418;28;20456;-67
2022/07/10 07:55:59;;;;;;;4.47;2.13;;;16.20;94.30;;;;;;5074885;28;20619;-68
2022/07/10 07:58:24;;;;;;;3.03;1.47;;;16.10;94.20;;;;;;5074766;28;20177;-68
2022/07/10 08:00:50;;;;;;;4.43;1.67;;;16.20;94.30;;;;;;5074614;28;20167;-67
2022/07/10 08:03:16;;;;;;;4.57;1.47;;;16.30;94.30;;;;;;5072774;28;20253;-67
2022/07/10 08:05:42;;;;;;;5.10;1.50;;;16.40;94.40;;;;;;5074694;28;20174;-74
2022/07/10 08:08:09;;;;;;;3.00;1.43;;;16.50;94.40;;;;;;5074491;28;20677;-74
2022/07/10 08:10:36;;;;;;;4.93;1.83;;;16.40;91.60;;;;;;5074320;28;20178;-68
2022/07/10 08:13:03;;;;;;;5.77;1.77;;;16.30;88.30;;;;;;5071759;28;20427;-73
2022/07/10 08:15:29;;;;;;;2.80;1.63;;;16.30;85.70;;;;;;5074241;28;20408;-67
2022/07/10 08:17:57;;;;;;;6.00;2.07;;;16.30;76.50;;;;;;5074375;28;20424;-75
2022/07/10 08:20:25;;;;;;;4.63;1.30;;;16.30;81.90;;;;;;5073920;28;20507;-74
2022/07/10 08:22:52;;;;;;;3.03;1.50;;;16.40;74.00;;;;;;5073409;28;20400;-74
2022/07/10 08:25:18;;;;;;;6.70;2.00;;;16.40;75.20;;;;;;5074040;28;20455;-75
2022/07/10 08:27:45;;;;;;;1.33;1.23;;;16.50;80.70;;;;;;5072754;28;20803;-68
2022/07/10 08:30:11;;;;;;;8.93;1.90;;;16.80;86.00;;;;;;5073685;28;20393;-73
2022/07/10 08:32:38;;;;;;;2.20;1.50;;;17.00;81.40;;;;;;5072183;28;20480;-67
2022/07/10 08:35:05;;;;;;;2.00;1.20;;;17.30;82.10;;;;;;5075267;28;20869;-74
2022/07/10 08:37:37;;;;;;;3.73;1.43;;;17.30;75.70;;;;;;5074006;28;20392;-73
2022/07/10 08:40:03;;;;;;;3.57;1.30;;;17.20;61.20;;;;;;5073781;28;20912;-68
2022/07/10 08:42:32;;;;;;;3.20;1.23;;;16.90;56.30;;;;;;5072804;28;21220;-74
2022/07/10 08:44:58;;;;;;;8.50;2.07;;;16.80;57.90;;;;;;5072318;28;20489;-73
2022/07/10 08:47:25;;;;;;;4.30;1.63;;;16.90;61.70;;;;;;5073482;28;20412;-67
2022/07/10 08:49:51;;;;;;;5.27;1.60;;;17.10;62.80;;;;;;5073777;28;20408;-68
2022/07/10 08:52:30;;;;;;;9.73;1.30;;;17.30;59.90;;;;;;5072789;28;20471;-74
2022/07/10 08:54:56;;;;;;;2.77;1.27;;;17.60;63.50;;;;;;5073478;28;20420;-67
2022/07/10 08:57:24;;;;;;;7.97;2.00;;;17.80;65.00;;;;;;5073577;28;20487;-74
2022/07/10 08:59:49;;;;;;;6.93;1.53;;;18.00;52.60;;;;;;5073688;28;20420;-67
2022/07/10 09:02:15;;;;;;;3.30;1.10;;;18.10;54.10;;;;;;5072819;28;20443;-74
2022/07/10 09:04:41;;;;;;;4.17;1.20;;;18.20;48.00;;;;;;5072968;28;20270;-73
2022/07/10 09:07:07;;;;;;;6.23;1.60;;;18.40;41.60;;;;;;5073056;28;20562;-71
2022/07/10 09:09:57;;;;;;;6.60;1.23;;;18.60;48.80;;;;;;5090732;28;20455;-73
2022/07/10 09:12:24;;;;;;;6.20;1.97;;;18.50;32.10;;;;;;5072573;28;20498;-68
2022/07/10 09:14:51;;;;;;;6.53;1.43;;;18.30;28.20;;;;;;5073317;28;20408;-68
2022/07/10 09:17:20;;;;;;;7.23;1.30;;;18.20;26.70;;;;;;5073555;28;20488;-73
2022/07/10 09:19:46;;;;;;;7.27;2.10;;;18.30;27.80;;;;;;5073411;28;20420;-68
2022/07/10 09:22:14;;;;;;;4.80;1.40;;;18.40;31.40;;;;;;5085863;28;20435;-73
2022/07/10 09:24:46;;;;;;;2.80;1.57;;;18.50;25.80;;;;;;5093223;28;20420;-72
2022/07/10 09:27:14;;;;;;;4.60;1.67;;;18.30;23.90;;;;;;5092196;28;20450;-68
2022/07/10 09:29:50;;;;;;;9.23;1.40;;;18.20;24.20;;;;;;5093459;28;20431;-74
2022/07/10 09:32:19;;;;;;;4.20;1.17;;;18.10;25.40;;;;;;5092527;28;20443;-73
2022/07/10 09:36:04;;;;;;;3.63;1.90;;;18.20;21.60;;;;;;5093224;28;20494;-73
2022/07/10 09:37:39;;;;;;;7.73;1.97;;;18.20;18.00;;;;;;5090716;28;20423;-68
2022/07/10 09:40:07;;;;;;;4.70;1.83;;;18.00;22.10;;;;;;5093368;28;20486;-74
2022/07/10 09:42:37;;;;;;;7.13;3.20;;;17.90;21.30;;;;;;5091959;28;20406;-74
2022/07/10 09:45:12;;;;;;;4.00;3.60;;;17.80;20.40;;;;;;5096588;28;20895;-68
2022/07/10 09:47:42;;;;;;;3.40;2.53;;;17.80;12.60;;;;;;5097643;28;20428;-68
2022/07/10 09:50:33;;;;;;;5.30;2.53;;;17.80;13.30;;;;;;5097550;28;20833;-68
2022/07/10 09:53:05;;;;;;;3.10;2.70;;;18.20;15.90;;;;;;5093485;28;20446;-73
2022/07/10 09:55:33;;;;;;;3.27;1.70;;;18.60;25.20;;;;;;5094206;28;20471;-68
2022/07/10 09:58:00;;;;;;;5.93;2.00;;;18.70;17.00;;;;;;5097283;28;20438;-68
2022/07/10 10:00:28;;;;;;;7.00;2.40;;;18.50;14.00;;;;;;5096796;28;20403;-74
2022/07/10 10:03:02;;;;;;;5.07;1.63;;;18.40;8.40;;;;;;5094985;28;20945;-68
2022/07/10 10:05:40;;;;;;;4.40;1.33;;;18.70;13.10;;;;;;5082458;28;20484;-66
2022/07/10 10:08:16;;;;;;;5.83;1.70;;;19.30;7.10;;;;;;5092802;28;20763;-71
2022/07/10 10:10:49;;;;;;;2.97;1.37;;;19.60;13.50;;;;;;5085046;28;20447;-68
2022/07/10 10:13:28;;;;;;;6.43;2.20;;;19.60;3.00;;;;;;5092611;28;20434;-72
2022/07/10 10:15:54;;;;;;;5.80;1.77;;;19.80;1.00;;;;;;5076023;28;20400;-71
2022/07/10 10:18:25;;;;;;;2.37;1.27;;;19.50;1.00;;;;;;5081394;28;20427;-69
2022/07/10 10:20:54;;;;;;;4.17;1.80;;;19.40;1.00;;;;;;5096978;28;20456;-75
2022/07/10 10:23:21;;;;;;;4.23;2.00;;;19.40;3.20;;;;;;5095608;28;20922;-69
2022/07/10 10:25:48;;;;;;;4.03;1.30;;;19.70;10.70;;;;;;5090600;28;20904;-75
2022/07/10 10:28:16;;;;;;;5.07;1.30;;;19.80;5.90;;;;;;5076433;28;20437;-75
2022/07/10 10:30:46;;;;;;;3.17;1.57;;;19.40;1.00;;;;;;5076224;28;20396;-69
2022/07/10 10:33:42;;;;;;;6.70;1.20;;;18.90;1.00;;;;;;5074770;28;20793;-73
2022/07/10 10:36:08;;;;;;;7.20;1.60;;;18.70;1.00;;;;;;5076437;28;20473;-70
2022/07/10 10:38:49;;;;;;;4.17;1.40;;;18.70;1.00;;;;;;5076423;28;20474;-69
2022/07/10 10:41:27;;;;;;;3.27;1.13;;;18.90;1.00;;;;;;5075845;28;20458;-74
2022/07/10 10:44:15;;;;;;;2.93;1.17;;;19.20;1.00;;;;;;5089149;28;20811;-69
2022/07/10 10:46:50;;;;;;;4.03;1.20;;;19.90;1.00;;;;;;5096365;28;20452;-76
2022/07/10 10:49:18;;;;;;;5.80;1.53;;;20.40;1.00;;;;;;5096155;28;20433;-68
2022/07/10 10:52:01;;;;;;;10.30;1.50;;;20.30;1.00;;;;;;5095672;28;20788;-75
2022/07/10 10:54:29;;;;;;;5.60;1.40;;;19.50;1.00;;;;;;5095398;28;20431;-75
2022/07/10 10:57:13;;;;;;;7.87;1.40;;;19.00;1.00;;;;;;5095336;28;20423;-67
2022/07/10 10:59:47;;;;;;;3.53;1.60;;;18.80;1.00;;;;;;5075933;28;20423;-74
2022/07/10 11:02:32;;;;;;;6.90;1.60;;;18.80;1.00;;;;;;5075158;28;20404;-67
2022/07/10 11:05:18;;;;;;;2.77;1.33;;;19.00;1.00;;;;;;5075796;28;20416;-65
2022/07/10 11:08:02;;;;;;;5.20;1.50;;;19.20;1.00;;;;;;5068374;28;20416;-73
2022/07/10 11:10:30;;;;;;;2.00;1.20;;;19.40;1.00;;;;;;5075184;28;20420;-68
2022/07/10 11:13:00;;;;;;;4.03;1.40;;;20.00;6.60;;;;;;5073986;28;20451;-75
2022/07/10 11:15:30;;;;;;;3.03;1.30;;;21.10;1.00;;;;;;5095123;28;20420;-74
2022/07/10 11:17:57;;;;;;;2.47;1.67;;;22.00;1.00;;;;;;5095702;28;20400;-75
2022/07/10 11:20:23;;;;;;;3.57;0.90;;;22.00;1.00;;;;;;5095772;28;20489;-68
2022/07/10 11:23:09;;;;;;;4.37;1.23;;;21.90;1.00;;;;;;5094933;28;20872;-70
2022/07/10 11:25:50;;;;;;;3.33;1.47;;;21.80;1.00;;;;;;5095484;28;20403;-75
2022/07/10 11:28:24;;;;;;;2.47;1.10;;;21.30;1.00;;;;;;5095093;28;20482;-75
2022/07/10 11:30:53;;;;;;;3.80;1.30;;;22.10;1.00;;;;;;5081309;28;20426;-68
2022/07/10 11:33:23;;;;;;;4.03;1.43;;;22.90;1.00;;;;;;5074274;28;20412;-68
2022/07/10 11:35:51;;;;;;;3.60;1.10;;;23.70;1.00;;;;;;5075299;28;20393;-75
2022/07/10 11:38:24;;;;;;;3.60;1.47;;;23.70;1.00;;;;;;5075059;28;20756;-68
2022/07/10 11:40:52;;;;;;;4.83;1.50;;;23.10;1.00;;;;;;5075070;28;20400;-68
2022/07/10 11:43:20;;;;;;;2.00;1.27;;;22.50;1.00;;;;;;5073996;28;20456;-69
2022/07/10 11:45:45;;;;;;;2.90;1.40;;;21.80;1.00;;;;;;5075842;28;20428;-72
2022/07/10 11:48:19;;;;;;;4.20;1.37;;;21.40;1.00;;;;;;5093619;28;20472;-75
2022/07/10 11:50:45;;;;;;;3.30;1.50;;;21.90;1.00;;;;;;5095009;28;20170;-68
2022/07/10 11:53:11;;;;;;;3.40;1.27;;;23.00;1.00;;;;;;5094112;28;20419;-75
2022/07/10 11:55:40;;;;;;;4.10;1.00;;;24.00;1.00;;;;;;5094963;28;20442;-67
2022/07/10 11:58:16;;;;;;;1.30;0.67;;;24.40;1.00;;;;;;5094817;28;20683;-75
2022/07/10 12:00:42;;;;;;;2.90;1.07;;;25.10;1.00;;;;;;5095029;28;20891;-68
2022/07/10 12:03:20;;;;;;;2.70;1.40;;;25.10;1.00;;;;;;5081779;28;20475;-69
2022/07/10 12:05:46;;;;;;;3.83;1.13;;;24.30;1.00;;;;;;5074433;28;20569;-74
2022/07/10 12:08:15;;;;;;;2.73;1.13;;;23.20;1.00;;;;;;5073109;28;20409;-74
2022/07/10 12:10:42;;;;;;;4.17;1.50;;;22.70;1.00;;;;;;5074480;28;20515;-75
2022/07/10 12:13:13;;;;;;;4.20;1.10;;;23.30;1.00;;;;;;5072027;28;20548;-68
2022/07/10 12:15:44;;;;;;;3.30;0.90;;;23.60;1.00;;;;;;5074399;28;20953;-68
2022/07/10 12:18:21;;;;;;;2.43;1.30;;;23.10;1.00;;;;;;5075279;28;20428;-74
2022/07/10 12:20:49;;;;;;;3.20;0.90;;;22.80;1.00;;;;;;5073006;28;20416;-75
2022/07/10 12:23:16;;;;;;;2.80;1.03;;;22.30;1.00;;;;;;5072826;28;20402;-75
2022/07/10 12:25:51;;;;;;;5.43;1.17;;;21.80;1.00;;;;;;5074253;28;20393;-68
2022/07/10 12:28:17;;;;;;;2.70;1.07;;;21.50;1.00;;;;;;5074064;28;20424;-75
2022/07/10 12:30:44;;;;;;;4.30;1.20;;;21.00;1.00;;;;;;5074226;28;20943;-66
2022/07/10 12:33:19;;;;;;;7.30;1.43;;;20.40;1.00;;;;;;5073089;28;20491;-71
2022/07/10 12:35:58;;;;;;;5.97;1.50;;;20.70;1.00;;;;;;5075243;28;20452;-74
2022/07/10 12:38:33;;;;;;;4.60;1.33;;;22.30;1.00;;;;;;5073615;28;20515;-74
2022/07/10 12:41:10;;;;;;;5.50;1.23;;;23.90;1.00;;;;;;5073728;28;20400;-73
2022/07/10 12:43:36;;;;;;;4.70;1.27;;;23.80;1.00;;;;;;5072692;28;20455;-72
2022/07/10 12:46:22;;;;;;;2.27;1.73;;;23.20;1.00;;;;;;5076728;28;20423;-72
2022/07/10 12:49:08;;;;;;;4.83;1.40;;;21.90;1.00;;;;;;5093927;28;20399;-73
2022/07/10 12:51:38;;;;;;;2.77;1.13;;;21.10;1.00;;;;;;5092627;28;20450;-72
2022/07/10 12:54:04;;;;;;;3.10;1.57;;;20.60;1.00;;;;;;5091795;28;20515;-72
2022/07/10 12:56:32;;;;;;;2.97;1.37;;;20.30;1.00;;;;;;5093650;28;20473;-71
2022/07/10 12:58:59;;;;;;;3.00;1.00;;;20.20;1.00;;;;;;5092088;28;20443;-72